Time,TemperatureF,DewpointF,PressureIn,WindDirection,WindDirectionDegrees,WindSpeedMPH,WindSpeedGustMPH,Humidity,HourlyPrecipIn,Conditions,Clouds,dailyrainin,SoftwareType,DateUTC
2013-04-04 00:05:00,23.6,12.0,30.43,SSW,208,0.0,1.0,62,0.00,,,0.00,weatherlink.com 1.10,2013-04-04 04:05:00,
2013-04-04 00:23:00,23.4,14.0,30.43,SSW,208,0.0,0.0,66,0.00,,,0.00,weatherlink.com 1.10,2013-04-04 04:23:00,
2013-04-04 00:41:00,21.6,12.0,30.44,SSW,208,0.0,0.0,66,0.00,,,0.00,weatherlink.com 1.10,2013-04-04 04:41:00,
2013-04-04 01:01:00,20.8,12.0,30.44,SSW,208,0.0,0.0,69,0.00,,,0.00,weatherlink.com 1.10,2013-04-04 05:01:00,
2013-04-04 01:19:00,21.1,12.0,30.44,SSW,208,0.0,0.0,68,0.00,,,0.00,weatherlink.com 1.10,2013-04-04 05:19:00,
2013-04-04 01:37:00,21.1,13.0,30.43,SSW,208,0.0,0.0,71,0.00,,,0.00,weatherlink.com 1.10,2013-04-04 05:37:00,
2013-04-04 02:15:00,20.5,14.0,30.42,NW,323,0.0,2.0,75,0.00,,,0.00,weatherlink.com 1.10,2013-04-04 06:15:00,
2013-04-04 02:33:00,21.2,13.0,30.42,West,280,0.0,0.0,71,0.00,,,0.00,weatherlink.com 1.10,2013-04-04 06:33:00,
2013-04-04 02:51:00,20.5,14.0,30.42,West,280,0.0,1.0,75,0.00,,,0.00,weatherlink.com 1.10,2013-04-04 06:51:00,
2013-04-04 03:11:00,19.4,14.0,30.41,WNW,301,0.0,2.0,79,0.00,,,0.00,weatherlink.com 1.10,2013-04-04 07:11:00,
2013-04-04 03:29:00,20.0,14.0,30.41,NW,304,0.0,1.0,77,0.00,,,0.00,weatherlink.com 1.10,2013-04-04 07:29:00,
2013-04-04 03:47:00,18.8,13.0,30.42,NW,305,0.0,1.0,78,0.00,,,0.00,weatherlink.com 1.10,2013-04-04 07:47:00,
2013-04-04 04:05:00,18.5,13.0,30.41,NW,305,0.0,0.0,80,0.00,,,0.00,weatherlink.com 1.10,2013-04-04 08:05:00,
2013-04-04 04:25:00,18.9,13.0,30.41,NE,47,1.0,1.0,78,0.00,,,0.00,weatherlink.com 1.10,2013-04-04 08:25:00,
2013-04-04 04:43:00,18.3,13.0,30.42,NE,48,0.0,0.0,78,0.00,,,0.00,weatherlink.com 1.10,2013-04-04 08:43:00,
2013-04-04 05:01:00,17.5,13.0,30.42,NE,48,0.0,0.0,82,0.00,,,0.00,weatherlink.com 1.10,2013-04-04 09:01:00,
2013-04-04 05:21:00,16.8,12.0,30.43,NE,48,0.0,0.0,82,0.00,,,0.00,weatherlink.com 1.10,2013-04-04 09:21:00,
2013-04-04 05:39:00,17.1,12.0,30.42,NE,49,0.0,0.0,81,0.00,,,0.00,weatherlink.com 1.10,2013-04-04 09:39:00,
2013-04-04 05:57:00,17.4,13.0,30.42,NE,49,1.0,1.0,81,0.00,,,0.00,weatherlink.com 1.10,2013-04-04 09:57:00,
2013-04-04 06:17:00,17.5,13.0,30.41,NNW,343,0.0,1.0,83,0.00,,,0.00,weatherlink.com 1.10,2013-04-04 10:17:00,
2013-04-04 06:35:00,17.5,13.0,30.41,NNW,342,0.0,1.0,83,0.00,,,0.00,weatherlink.com 1.10,2013-04-04 10:35:00,
2013-04-04 06:54:00,17.9,14.0,30.41,NNW,343,0.0,1.0,84,0.00,,,0.00,weatherlink.com 1.10,2013-04-04 10:54:00,
2013-04-04 07:12:00,17.9,13.0,30.41,NNW,342,0.0,1.0,82,0.00,,,0.00,weatherlink.com 1.10,2013-04-04 11:12:00,
2013-04-04 07:30:00,18.9,15.0,30.39,WSW,242,2.0,3.0,84,0.00,,,0.00,weatherlink.com 1.10,2013-04-04 11:30:00,
2013-04-04 07:50:00,20.3,16.0,30.37,SSW,210,1.0,2.0,83,0.00,,,0.00,weatherlink.com 1.10,2013-04-04 11:50:00,
2013-04-04 08:08:00,20.4,16.0,30.38,East,85,0.0,2.0,82,0.00,,,0.00,weatherlink.com 1.10,2013-04-04 12:08:00,
2013-04-04 08:26:00,22.9,17.0,30.38,East,85,0.0,1.0,79,0.00,,,0.00,weatherlink.com 1.10,2013-04-04 12:26:00,
2013-04-04 08:44:00,25.0,18.0,30.37,East,85,0.0,1.0,76,0.00,,,0.00,weatherlink.com 1.10,2013-04-04 12:44:00,
2013-04-04 09:04:00,26.5,19.0,30.36,East,94,0.0,2.0,73,0.00,,,0.00,weatherlink.com 1.10,2013-04-04 13:04:00,
2013-04-04 09:22:00,28.2,20.0,30.36,SW,222,0.0,2.0,70,0.00,,,0.00,weatherlink.com 1.10,2013-04-04 13:22:00,
2013-04-04 09:40:00,29.2,19.0,30.34,SSW,193,1.0,2.0,65,0.00,,,0.00,weatherlink.com 1.10,2013-04-04 13:40:00,
2013-04-04 10:00:00,30.2,21.0,30.33,WSW,242,1.0,3.0,68,0.00,,,0.00,weatherlink.com 1.10,2013-04-04 14:00:00,
2013-04-04 10:18:00,31.7,17.0,30.32,South,186,1.0,2.0,55,0.00,,,0.00,weatherlink.com 1.10,2013-04-04 14:18:00,
2013-04-04 10:36:00,32.8,19.0,30.31,SSW,212,2.0,3.0,58,0.00,,,0.00,weatherlink.com 1.10,2013-04-04 14:36:00,
2013-04-04 10:56:00,36.3,20.0,30.31,SSW,205,0.0,4.0,52,0.00,,,0.00,weatherlink.com 1.10,2013-04-04 14:56:00,
2013-04-04 11:14:00,40.2,18.0,30.30,SW,222,2.0,3.0,41,0.00,,,0.00,weatherlink.com 1.10,2013-04-04 15:14:00,
2013-04-04 11:32:00,43.1,11.0,30.29,West,266,2.0,4.0,27,0.00,,,0.00,weatherlink.com 1.10,2013-04-04 15:32:00,
2013-04-04 11:50:00,46.2,12.0,30.28,NW,314,2.0,6.0,25,0.00,,,0.00,weatherlink.com 1.10,2013-04-04 15:50:00,
2013-04-04 12:10:00,47.2,11.0,30.27,NNW,345,2.0,9.0,23,0.00,,,0.00,weatherlink.com 1.10,2013-04-04 16:10:00,
2013-04-04 12:28:00,48.7,13.0,30.25,NNE,27,6.0,11.0,24,0.00,,,0.00,weatherlink.com 1.10,2013-04-04 16:28:00,
2013-04-04 12:46:00,50.7,11.0,30.24,SW,236,2.0,8.0,20,0.00,,,0.00,weatherlink.com 1.10,2013-04-04 16:46:00,
2013-04-04 13:06:00,49.7,9.0,30.22,WNW,297,3.0,10.0,19,0.00,,,0.00,weatherlink.com 1.10,2013-04-04 17:06:00,
2013-04-04 13:42:00,50.3,7.0,30.21,NW,307,2.0,11.0,17,0.00,,,0.00,weatherlink.com 1.10,2013-04-04 17:42:00,
2013-04-04 14:00:00,50.2,8.0,30.19,WSW,243,4.0,10.0,18,0.00,,,0.00,weatherlink.com 1.10,2013-04-04 18:00:00,
2013-04-04 14:20:00,52.0,9.0,30.18,WNW,287,3.0,11.0,18,0.00,,,0.00,weatherlink.com 1.10,2013-04-04 18:20:00,
2013-04-04 14:38:00,52.5,9.0,30.17,NNE,16,5.0,11.0,17,0.00,,,0.00,weatherlink.com 1.10,2013-04-04 18:38:00,
2013-04-04 14:56:00,53.0,13.0,30.17,NNW,335,3.0,5.0,20,0.00,,,0.00,weatherlink.com 1.10,2013-04-04 18:56:00,
2013-04-04 15:16:00,52.2,10.0,30.15,NW,315,2.0,7.0,18,0.00,,,0.00,weatherlink.com 1.10,2013-04-04 19:16:00,
2013-04-04 15:34:00,51.7,9.0,30.15,NNW,348,4.0,7.0,18,0.00,,,0.00,weatherlink.com 1.10,2013-04-04 19:34:00,
2013-04-04 16:09:00,52.2,11.0,30.12,West,273,4.0,6.0,19,0.00,,,0.00,weatherlink.com 1.10,2013-04-04 20:09:00,
2013-04-04 16:28:00,52.6,12.0,30.11,NW,314,2.0,6.0,20,0.00,,,0.00,weatherlink.com 1.10,2013-04-04 20:28:00,
2013-04-04 16:46:00,52.3,13.0,30.11,NW,316,3.0,8.0,21,0.00,,,0.00,weatherlink.com 1.10,2013-04-04 20:46:00,
2013-04-04 17:04:00,52.1,14.0,30.11,West,276,5.0,7.0,22,0.00,,,0.00,weatherlink.com 1.10,2013-04-04 21:04:00,
2013-04-04 17:23:00,51.0,15.0,30.09,WNW,301,4.0,11.0,24,0.00,,,0.00,weatherlink.com 1.10,2013-04-04 21:23:00,
2013-04-04 17:41:00,50.4,16.0,30.08,WNW,282,6.0,11.0,25,0.00,,,0.00,weatherlink.com 1.10,2013-04-04 21:41:00,
2013-04-04 18:01:00,49.6,16.0,30.08,WNW,293,4.0,8.0,26,0.00,,,0.00,weatherlink.com 1.10,2013-04-04 22:01:00,
2013-04-04 18:19:00,49.0,15.0,30.08,NNW,339,6.0,7.0,26,0.00,,,0.00,weatherlink.com 1.10,2013-04-04 22:19:00,
2013-04-04 18:37:00,48.6,16.0,30.08,NW,311,2.0,9.0,27,0.00,,,0.00,weatherlink.com 1.10,2013-04-04 22:37:00,
2013-04-04 18:55:00,48.2,15.0,30.08,NE,37,3.0,9.0,27,0.00,,,0.00,weatherlink.com 1.10,2013-04-04 22:55:00,
2013-04-04 19:15:00,47.7,15.0,30.07,North,4,4.0,9.0,27,0.00,,,0.00,weatherlink.com 1.10,2013-04-04 23:15:00,
2013-04-04 19:33:00,47.3,15.0,30.06,WNW,302,5.0,10.0,27,0.00,,,0.00,weatherlink.com 1.10,2013-04-04 23:33:00,
2013-04-04 19:51:00,47.0,14.0,30.05,NW,304,4.0,9.0,27,0.00,,,0.00,weatherlink.com 1.10,2013-04-04 23:51:00,
2013-04-04 20:11:00,46.6,15.0,30.05,WNW,293,3.0,12.0,28,0.00,,,0.00,weatherlink.com 1.10,2013-04-05 00:11:00,
2013-04-04 20:47:00,46.1,15.0,30.05,West,274,2.0,8.0,29,0.00,,,0.00,weatherlink.com 1.10,2013-04-05 00:47:00,
2013-04-04 21:05:00,46.0,16.0,30.05,NNE,25,3.0,8.0,30,0.00,,,0.00,weatherlink.com 1.10,2013-04-05 01:05:00,
2013-04-04 21:25:00,45.4,17.0,30.05,ENE,61,0.0,6.0,32,0.00,,,0.00,weatherlink.com 1.10,2013-04-05 01:25:00,
2013-04-04 21:43:00,45.4,17.0,30.05,NNW,346,2.0,7.0,32,0.00,,,0.00,weatherlink.com 1.10,2013-04-05 01:43:00,
2013-04-04 22:02:00,45.2,17.0,30.05,North,1,1.0,7.0,32,0.00,,,0.00,weatherlink.com 1.10,2013-04-05 02:02:00,
2013-04-04 22:20:00,45.5,18.0,30.04,NE,43,0.0,8.0,33,0.00,,,0.00,weatherlink.com 1.10,2013-04-05 02:20:00,
2013-04-04 22:38:00,45.4,18.0,30.03,North,9,3.0,8.0,33,0.00,,,0.00,weatherlink.com 1.10,2013-04-05 02:38:00,
2013-04-04 22:58:00,45.5,18.0,30.02,ENE,58,1.0,10.0,34,0.00,,,0.00,weatherlink.com 1.10,2013-04-05 02:58:00,
2013-04-04 23:16:00,44.9,18.0,30.02,NE,43,5.0,7.0,34,0.00,,,0.00,weatherlink.com 1.10,2013-04-05 03:16:00,
2013-04-04 23:34:00,45.1,18.0,30.02,East,82,1.0,6.0,34,0.00,,,0.00,weatherlink.com 1.10,2013-04-05 03:34:00,
2013-04-04 23:52:00,45.0,19.0,30.01,ENE,57,3.0,5.0,35,0.00,,,0.00,weatherlink.com 1.10,2013-04-05 03:52:00,